Tocito, New Mexico
Current Conditions -  °F | °C
As of 12:53 PM on Thursday 30 Oct 2014 (Local Time) from KFMN Reporting Station
Clear Clear  
Wind Chill: 61°   Ceiling: Unl
Heat Index: 61°   Visibility: 10mi
Dew Point: 15°   Wind: 0mph
Humidity: 17%   Direction: NA
Pressure: 30.31"   Gusts: NA
Location:  36.3945°N, 108.769°W
Report Text: KFMN 301853Z 00000KT 10SM CLR 16/M09 A3031 RMK AO2 SLP251 T01611094
Loading
Personal Weather Stations






























Interactive Weather Map
Tropical Storm Tracking
New forecast layout! Learn more

10-Day Weather Forecast

Advertisements
Track Severe Weather on mobile